Nearby METAR Reports

 

MWCR - Owen Roberts, Grand Cayman
Distance from station: NNE 3mi, 4km
Updated: 22/02/2018 22:00
NOT Current
Few Clouds
Few Clouds
 Wind from ENE
Wind: ENE 10 mph , 17 km/h
Temperature: 79°F , 26°C
Dew Point: 75°F , 24°C
Humidity: 89%
Barometer: 1021 hPa
Clouds: Few Clouds
Visibility: 6 miles , 10 km
Cloud details: Few Clouds 2000 ft
2018/02/23 03:00 MWCR 230300Z 06009KT 9999 FEW020 26/24 Q1021
MWCB - Gerrard Smith, Cayman Brac
Distance from station: ENE 102mi, 164km
Updated: 22/02/2018 19:00
NOT Current
Few Clouds
Few Clouds
 Wind from E
Wind: E 8 mph , 13 km/h
Temperature: 79°F , 26°C
Dew Point: 70°F , 21°C
Humidity: 74%
Barometer: 1020 hPa
Clouds: Few Clouds
Visibility: 6 miles , 10 km
Cloud details: Few Clouds 1800 ft
2018/02/23 00:00 MWCB 230000Z 10007KT 9999 FEW018 26/21 Q1020
 
MUCL - Cayo Largo D Sur, Cuba
Distance from station: N 164mi, 264km
Updated: 23/02/2018 04:05

 Wind from ENE
Wind: ENE 13 mph , 20 km/h
Temperature: 75°F , 24°C
Dew Point: 70°F , 21°C
Humidity: 83%
Barometer: 1022 hPa
2018/02/23 09:05 MUCL 230905Z AUTO 07011KT 24/21 Q1022
MUCF - Cienfuegos(Civ/M, Cuba
Distance from station: NNE 208mi, 335km
Updated: 23/02/2018 04:59

 Wind from NNE
Wind: NNE 6 mph , 9 km/h
Temperature: 66°F , 19°C
Dew Point: 64°F , 18°C
Humidity: 94%
Barometer: 1023 hPa
2018/02/23 09:59 MUCF 230959Z AUTO 02005KT 19/18 Q1023
 
MKJS - Sangster/Montego Bay, Jamaica
Distance from station: ESE 233mi, 375km
Updated: 23/02/2018 04:00
Few Clouds
Few Clouds
 Wind from ESE
Wind: ESE 9 mph , 15 km/h
Temperature: 77°F , 25°C
Dew Point: 68°F , 20°C
Humidity: 74%
Barometer: 1018 hPa
Clouds: Few Clouds
Visibility: 6 miles , 10 km
Cloud details: Few Clouds 2200 ft
2018/02/23 09:00 MKJS 230900Z 11008KT 9999 FEW022 25/20 Q1018
MUSC - Santa Clara, Cuba
Distance from station: NNE 242mi, 389km
Updated: 23/02/2018 04:50
Few Clouds
Few Clouds
 Wind from E
Wind: E 6 mph , 9 km/h
Temperature: 68°F , 20°C
Dew Point: 68°F , 20°C
Humidity: 100%
Barometer: 1023 hPa
Clouds: Few Clouds
Visibility: 5 miles , 8 km
Cloud details: Few Clouds 2000 ft
2018/02/23 09:50 MUSC 230950Z 08005KT 8000 FEW020 20/20 Q1023
 
MUVR - Varadero, Cuba
Distance from station: N 260mi, 419km
Updated: 23/02/2018 04:50
Partly cloudy
Partly cloudy
 Wind from E
Wind: E 2 mph , 4 km/h
Temperature: 64°F , 18°C
Dew Point: 63°F , 17°C
Humidity: 94%
Barometer: 1024 hPa
Clouds: Partly cloudy
Visibility: 6 miles , 9 km
2018/02/23 09:50 MUVR 230950Z 09002KT 9000 NSC 18/17 Q1024
MUHA - Havana/Jose Mar, Cuba
Distance from station: NNW 264mi, 425km
Updated: 23/02/2018 04:55
Few Clouds
Few Clouds
 Wind from ENE
Wind: ENE 2 mph , 4 km/h
Temperature: 68°F , 20°C
Dew Point: 66°F , 19°C
Humidity: 94%
Barometer: 1023 hPa
Clouds: Few Clouds
Visibility: 6 miles , 9 km
Cloud details: Few Clouds 3000 ft
2018/02/23 09:55 MUHA 230955Z 07002KT 9000 FEW030 20/19 Q1023
 
MUCM - Camaguey/Iganci, Cuba
Distance from station: NE 273mi, 439km
Updated: 23/02/2018 04:50
Partly cloudy
Partly cloudy
 Wind from ENE
Wind: ENE 9 mph , 15 km/h
Temperature: 70°F , 21°C
Dew Point: 68°F , 20°C
Humidity: 94%
Barometer: 1022 hPa
Clouds: Partly cloudy
Visibility: 6 miles , 9 km
2018/02/23 09:50 MUCM 230950Z 06008KT 9000 NSC 21/20 Q1022
MUMZ - Manzanillo, Cuba
Distance from station: ENE 287mi, 462km
Updated: 11/10/2016 09:50
NOT Current
Partly cloudy
Partly cloudy
 Wind from ENE
Wind: ENE 12 mph , 19 km/h
Temperature: 84°F , 29°C
Heat Index: 89°F , 32°C
Dew Point: 72°F , 22°C
Humidity: 66%
Barometer: 1014 hPa
Clouds: Partly cloudy
Visibility: 6 miles , 9 km
Cloud details: Partly cloudy 2000 ft
2016/10/11 14:50 MUMZ 111450Z 07010KT 9000 SCT020 29/22 Q1014
 
MUCC - Canagua, Cuba
Distance from station: NE 296mi, 476km
Updated: 23/02/2018 04:50
Few Clouds
Few Clouds
 Wind from E
Wind: E 14 mph , 22 km/h
Temperature: 75°F , 24°C
Dew Point: 66°F , 19°C
Humidity: 74%
Barometer: 1022 hPa
Clouds: Few Clouds
Visibility: 6 miles , 9 km
Cloud details: Few Clouds 2000 ft
2018/02/23 09:50 MUCC 230950Z 09012KT 9000 FEW020 24/19 Q1022
MKJP - Kingston/Norman Manley, Jamaica
Distance from station: ESE 315mi, 507km
Updated: 23/02/2018 04:00
Few Clouds
Few Clouds
 Wind from N
Wind: N 6 mph , 9 km/h
Temperature: 77°F , 25°C
Dew Point: 68°F , 20°C
Humidity: 74%
Barometer: 1017 hPa
Clouds: Few Clouds
Visibility: 6 miles , 10 km
Cloud details: Few Clouds 2400 ft
2018/02/23 09:00 MKJP 230900Z 36005KT 9999 FEW024 25/20 Q1017
 
MHPL - Puerto Lempira, Honduras
Distance from station: SSW 318mi, 513km
Updated: 22/02/2018 19:00
NOT Current
Partly cloudy
Partly cloudy
 Wind from NE
Wind: NE 12 mph , 19 km/h
Temperature: 81°F , 27°C
Heat Index: 86°F , 30°C
Dew Point: 73°F , 23°C
Humidity: 79%
Barometer: 1014 hPa
Clouds: Partly cloudy
Visibility: 6 miles , 10 km
Cloud details: Partly cloudy 2800 ft
2018/02/23 00:00 MHPL 230000Z 05010KT 9999 SCT028TCU 27/23 Q1014 TCU S SW W HZ
MUHG - Holguin (civ/Mil, Cuba
Distance from station: ENE 345mi, 555km
Updated: 23/02/2018 04:50
Partly cloudy
Partly cloudy
 Wind from E
Wind: E 10 mph , 17 km/h
Temperature: 72°F , 22°C
Dew Point: 66°F , 19°C
Humidity: 83%
Barometer: 1021 hPa
Clouds: Partly cloudy
Visibility: 5 miles , 8 km
2018/02/23 09:50 MUHG 230950Z 08009KT 8000 NSC 22/19 Q1021